createdAt,value
2022-11-12T00:00:49.629Z,53.10
2022-11-12T00:03:16.517Z,53.10
2022-11-12T00:05:45.194Z,53.03
2022-11-12T00:08:11.680Z,52.94
2022-11-12T00:10:38.338Z,52.94
2022-11-12T00:13:04.870Z,53.06
2022-11-12T00:15:31.521Z,53.08
2022-11-12T00:17:57.982Z,53.09
2022-11-12T00:20:24.563Z,53.12
2022-11-12T00:22:51.342Z,53.21
2022-11-12T00:25:18.029Z,53.19
2022-11-12T00:27:44.623Z,53.20
2022-11-12T00:30:11.446Z,53.23
2022-11-12T00:32:38.442Z,53.25
2022-11-12T00:35:06.864Z,53.33
2022-11-12T00:37:35.258Z,53.28
2022-11-12T00:40:01.603Z,53.33
2022-11-12T00:42:28.016Z,53.33
2022-11-12T00:44:54.496Z,53.16
2022-11-12T00:47:21.044Z,53.10
2022-11-12T00:49:47.608Z,53.25
2022-11-12T00:52:14.149Z,53.02
2022-11-12T00:54:40.530Z,52.95
2022-11-12T00:57:06.996Z,53.13
2022-11-12T00:59:33.521Z,53.03
2022-11-12T01:01:59.989Z,53.04
2022-11-12T01:04:26.464Z,53.20
2022-11-12T01:06:53.027Z,53.30
2022-11-12T01:09:19.629Z,53.27
2022-11-12T01:11:46.109Z,53.34
2022-11-12T01:14:12.801Z,53.33
2022-11-12T01:16:40.465Z,53.35
2022-11-12T01:19:09.883Z,53.25
2022-11-12T01:21:42.591Z,53.32
2022-11-12T01:24:09.553Z,53.32
2022-11-12T01:26:36.787Z,53.25
2022-11-12T01:29:04.668Z,53.04
2022-11-12T01:31:36.172Z,52.98
2022-11-12T01:34:06.413Z,52.96
2022-11-12T01:36:36.550Z,52.85
2022-11-12T01:39:04.780Z,52.83
2022-11-12T01:41:33.935Z,52.76
2022-11-12T01:44:10.615Z,52.93
2022-11-12T01:47:00.046Z,53.06
2022-11-12T01:49:55.123Z,53.02
2022-11-12T01:52:23.519Z,52.57
2022-11-12T01:54:53.683Z,52.83
2022-11-12T01:57:30.643Z,52.77
2022-11-12T02:00:04.600Z,52.75
2022-11-12T02:02:31.225Z,52.74
2022-11-12T02:04:58.555Z,52.91
2022-11-12T02:07:25.872Z,52.92
2022-11-12T02:09:53.535Z,52.91
2022-11-12T02:12:43.608Z,52.87
2022-11-12T02:15:10.284Z,52.87
2022-11-12T02:17:36.865Z,52.90
2022-11-12T02:20:03.956Z,53.13
2022-11-12T02:22:30.419Z,53.14
2022-11-12T02:24:56.991Z,53.12
2022-11-12T02:27:24.196Z,53.16
2022-11-12T02:29:50.696Z,53.26
2022-11-12T02:32:17.257Z,53.64
2022-11-12T02:34:43.993Z,53.43
2022-11-12T02:37:10.503Z,53.36
2022-11-12T02:39:37.133Z,53.57
2022-11-12T02:42:04.092Z,53.58
2022-11-12T02:44:31.179Z,53.51
2022-11-12T02:46:57.672Z,53.50
2022-11-12T02:49:24.156Z,53.63
2022-11-12T02:51:50.612Z,53.63
2022-11-12T02:54:17.083Z,53.46
2022-11-12T02:56:43.588Z,53.68
2022-11-12T02:59:10.020Z,53.70
2022-11-12T03:01:36.465Z,53.88
2022-11-12T03:04:03.295Z,53.66
2022-11-12T03:06:29.855Z,53.78
2022-11-12T03:08:56.401Z,53.72
2022-11-12T03:11:22.998Z,53.68
2022-11-12T03:13:49.538Z,53.74
2022-11-12T03:16:16.149Z,53.82
2022-11-12T03:18:42.628Z,53.95
2022-11-12T03:21:09.217Z,53.85
2022-11-12T03:23:35.690Z,53.91
2022-11-12T03:26:03.923Z,53.82
2022-11-12T03:28:32.586Z,53.96
2022-11-12T03:31:00.960Z,53.89
2022-11-12T03:33:27.507Z,53.94
2022-11-12T03:35:54.307Z,53.87
2022-11-12T03:38:20.847Z,53.89
2022-11-12T03:40:47.368Z,53.96
2022-11-12T03:43:13.947Z,53.87
2022-11-12T03:45:40.483Z,53.79
2022-11-12T03:48:07.179Z,53.98
2022-11-12T03:50:33.632Z,53.99
2022-11-12T03:53:00.504Z,53.95
2022-11-12T03:55:29.329Z,54.07
2022-11-12T03:57:56.685Z,54.14
2022-11-12T04:00:25.080Z,54.20
2022-11-12T04:02:51.613Z,53.98
2022-11-12T04:05:37.073Z,54.08
2022-11-12T04:08:24.723Z,54.39
2022-11-12T04:10:52.532Z,54.19
2022-11-12T04:13:28.004Z,54.20
2022-11-12T04:16:18.642Z,54.34
2022-11-12T04:19:06.039Z,54.23
2022-11-12T04:21:55.595Z,54.49
2022-11-12T04:24:47.274Z,54.46
2022-11-12T04:27:22.587Z,54.45
2022-11-12T04:30:08.585Z,54.54
2022-11-12T04:32:37.949Z,54.46
2022-11-12T04:35:05.543Z,54.42
2022-11-12T04:37:44.584Z,54.72
2022-11-12T04:40:32.515Z,54.68
2022-11-12T04:43:17.978Z,54.75
2022-11-12T04:45:47.048Z,54.83
2022-11-12T04:48:13.820Z,54.93
2022-11-12T04:50:41.751Z,55.05
2022-11-12T04:53:08.367Z,55.21
2022-11-12T04:55:34.939Z,55.19
2022-11-12T04:58:01.448Z,55.06
2022-11-12T05:00:28.628Z,55.19
2022-11-12T05:02:55.127Z,55.04
2022-11-12T05:05:21.688Z,55.06
2022-11-12T05:07:48.249Z,55.21
2022-11-12T05:10:15.060Z,55.02
2022-11-12T05:12:42.570Z,55.06
2022-11-12T05:15:09.878Z,55.09
2022-11-12T05:17:36.373Z,55.10
2022-11-12T05:20:02.953Z,55.06
2022-11-12T05:22:44.020Z,55.00
2022-11-12T05:25:14.627Z,55.00
2022-11-12T05:27:41.249Z,54.96
2022-11-12T05:30:08.363Z,54.99
2022-11-12T05:32:34.861Z,54.90
2022-11-12T05:35:01.365Z,55.07
2022-11-12T05:37:27.878Z,55.12
2022-11-12T05:39:54.369Z,55.14
2022-11-12T05:42:20.870Z,54.99
2022-11-12T05:44:47.365Z,54.90
2022-11-12T05:47:13.861Z,54.88
2022-11-12T05:49:40.339Z,54.99
2022-11-12T05:52:06.893Z,55.03
2022-11-12T05:54:33.507Z,54.95
2022-11-12T05:57:00.145Z,55.02
2022-11-12T05:59:26.603Z,55.16
2022-11-12T06:01:53.273Z,55.03
2022-11-12T06:04:19.750Z,54.98
2022-11-12T06:06:46.394Z,54.88
2022-11-12T06:09:12.955Z,54.97
2022-11-12T06:11:39.790Z,55.27
2022-11-12T06:14:06.343Z,55.16
2022-11-12T06:16:33.502Z,55.23
2022-11-12T06:19:00.275Z,55.11
2022-11-12T06:21:27.953Z,55.37
2022-11-12T06:23:57.832Z,55.34
2022-11-12T06:26:29.579Z,55.80
2022-11-12T06:28:56.373Z,55.62
2022-11-12T06:31:23.618Z,55.76
2022-11-12T06:33:50.603Z,55.66
2022-11-12T06:36:20.002Z,55.82
2022-11-12T06:38:46.940Z,55.44
2022-11-12T06:41:14.516Z,55.29
2022-11-12T06:43:41.811Z,55.63
2022-11-12T06:46:12.767Z,55.79
2022-11-12T06:48:39.902Z,55.66
2022-11-12T06:51:12.753Z,56.06
2022-11-12T06:53:39.290Z,55.87
2022-11-12T06:56:07.121Z,55.68
2022-11-12T06:58:34.409Z,55.46
2022-11-12T07:01:11.898Z,56.30
2022-11-12T07:03:40.135Z,55.60
2022-11-12T07:06:09.904Z,55.80
2022-11-12T07:08:36.925Z,55.83
2022-11-12T07:11:04.085Z,55.78
2022-11-12T07:13:32.568Z,56.08
2022-11-12T07:16:00.695Z,55.98
2022-11-12T07:18:28.499Z,56.08
2022-11-12T07:21:03.761Z,56.85
2022-11-12T07:23:32.521Z,56.39
2022-11-12T07:26:04.111Z,56.43
2022-11-12T07:28:31.188Z,56.34
2022-11-12T07:30:59.685Z,56.61
2022-11-12T07:33:27.489Z,56.26
2022-11-12T07:36:01.974Z,56.89
2022-11-12T07:38:30.275Z,56.63
2022-11-12T07:41:05.822Z,57.10
2022-11-12T07:43:34.016Z,56.59
2022-11-12T07:46:10.271Z,56.72
2022-11-12T07:48:38.059Z,56.46
2022-11-12T07:51:19.507Z,57.02
2022-11-12T07:53:46.958Z,56.64
2022-11-12T07:56:18.995Z,56.96
2022-11-12T07:58:46.350Z,56.79
2022-11-12T08:01:35.670Z,56.93
2022-11-12T08:04:04.600Z,56.80
2022-11-12T08:06:32.271Z,56.72
2022-11-12T08:09:01.187Z,56.97
2022-11-12T08:11:28.148Z,56.93
2022-11-12T08:13:54.663Z,56.84
2022-11-12T08:16:21.404Z,56.77
2022-11-12T08:18:48.292Z,56.71
2022-11-12T08:21:17.836Z,56.56
2022-11-12T08:23:45.218Z,56.45
2022-11-12T08:26:14.841Z,56.38
2022-11-12T08:28:41.796Z,56.46
2022-11-12T08:31:11.000Z,56.23
2022-11-12T08:33:38.033Z,56.14
2022-11-12T08:36:11.638Z,55.83
2022-11-12T08:38:39.269Z,56.04
2022-11-12T08:41:11.842Z,55.75
2022-11-12T08:43:40.049Z,55.65
2022-11-12T08:46:07.240Z,55.82
2022-11-12T08:48:34.570Z,55.39
2022-11-12T08:51:03.147Z,55.37
2022-11-12T08:53:29.703Z,55.17
2022-11-12T08:55:57.127Z,54.98
2022-11-12T08:58:24.925Z,54.71
2022-11-12T09:00:52.762Z,54.56
2022-11-12T09:03:22.175Z,54.30
2022-11-12T09:05:51.239Z,54.37
2022-11-12T09:08:20.242Z,54.27
2022-11-12T09:10:47.637Z,54.02
2022-11-12T09:13:14.515Z,54.09
2022-11-12T09:15:41.278Z,53.96
2022-11-12T09:18:12.395Z,53.43
2022-11-12T09:20:38.955Z,53.76
2022-11-12T09:23:14.050Z,52.72
2022-11-12T09:25:41.435Z,53.04
2022-11-12T09:28:12.139Z,52.69
2022-11-12T09:30:43.152Z,52.64
2022-11-12T09:33:09.724Z,52.89
2022-11-12T09:35:37.095Z,52.79
2022-11-12T09:38:04.016Z,52.79
2022-11-12T09:40:41.071Z,52.56
2022-11-12T09:43:31.768Z,52.71
2022-11-12T09:46:26.808Z,52.43
2022-11-12T09:49:02.490Z,52.48
2022-11-12T09:51:34.373Z,52.68
2022-11-12T09:54:13.546Z,52.27
2022-11-12T09:56:40.240Z,52.57
2022-11-12T10:01:54.711Z,51.82
2022-11-12T10:04:33.934Z,52.40
2022-11-12T10:07:21.089Z,51.55
2022-11-12T10:10:22.358Z,51.49
2022-11-12T10:13:01.242Z,51.13
2022-11-12T10:15:46.418Z,52.00
2022-11-12T10:18:22.120Z,51.25
2022-11-12T10:21:06.949Z,51.57
2022-11-12T10:23:46.088Z,50.82
2022-11-12T10:26:16.412Z,51.39
2022-11-12T10:28:51.353Z,51.72
2022-11-12T10:31:20.319Z,51.89
2022-11-12T10:33:47.569Z,51.90
2022-11-12T10:36:33.639Z,51.19
2022-11-12T10:39:00.194Z,51.38
2022-11-12T10:41:32.323Z,51.69
2022-11-12T10:44:02.970Z,51.60
2022-11-12T10:46:38.853Z,50.86
2022-11-12T10:49:21.575Z,51.20
2022-11-12T10:51:56.270Z,51.79
2022-11-12T10:54:35.122Z,52.04
2022-11-12T10:57:21.104Z,51.20
2022-11-12T10:59:47.694Z,51.98
2022-11-12T11:02:17.827Z,51.47
2022-11-12T11:04:44.844Z,52.67
2022-11-12T11:07:25.412Z,51.42
2022-11-12T11:10:00.330Z,50.60
2022-11-12T11:12:26.915Z,50.51
2022-11-12T11:15:08.255Z,48.79
2022-11-12T11:17:35.322Z,49.02
2022-11-12T11:20:02.959Z,48.38
2022-11-12T11:22:42.503Z,47.89
2022-11-12T11:25:21.151Z,45.93
2022-11-12T11:28:00.691Z,45.33
2022-11-12T11:30:27.612Z,46.57
2022-11-12T11:32:57.204Z,46.85
2022-11-12T11:35:35.556Z,45.17
2022-11-12T11:38:29.941Z,45.69
2022-11-12T11:41:34.961Z,45.16
2022-11-12T11:44:26.582Z,45.16
2022-11-12T11:47:04.452Z,46.33
2022-11-12T11:50:15.498Z,46.50
2022-11-12T11:52:52.233Z,46.31
2022-11-12T11:55:44.654Z,44.71
2022-11-12T11:58:40.218Z,45.04
2022-11-12T12:01:26.901Z,41.48
2022-11-12T12:04:03.863Z,42.03
2022-11-12T12:06:35.079Z,39.76
2022-11-12T12:09:08.579Z,38.17
2022-11-12T12:12:04.337Z,38.95
2022-11-12T12:15:03.727Z,37.33
2022-11-12T12:17:49.097Z,37.03
2022-11-12T12:20:45.080Z,35.13
2022-11-12T12:23:33.578Z,35.79
2022-11-12T12:26:02.900Z,33.14
2022-11-12T12:28:53.862Z,33.06
2022-11-12T12:31:26.549Z,31.10
2022-11-12T12:34:02.780Z,35.04
2022-11-12T12:36:37.372Z,31.40
2022-11-12T12:39:20.408Z,30.69
2022-11-12T12:41:51.803Z,31.08
2022-11-12T12:44:18.355Z,31.52
2022-11-12T12:46:58.552Z,32.71
2022-11-12T12:49:32.429Z,32.18
2022-11-12T12:51:59.546Z,32.80
2022-11-12T12:54:34.781Z,32.92
2022-11-12T12:57:03.873Z,33.20
2022-11-12T12:59:30.789Z,34.02
2022-11-12T13:02:03.030Z,33.81
2022-11-12T13:04:52.954Z,34.81
2022-11-12T13:07:40.566Z,36.41
2022-11-12T13:10:41.510Z,36.96
2022-11-12T13:13:20.807Z,36.79
2022-11-12T13:15:48.183Z,36.13
2022-11-12T13:18:39.723Z,36.76
2022-11-12T13:21:12.805Z,36.90
2022-11-12T13:24:09.408Z,38.06
2022-11-12T13:26:47.973Z,39.00
2022-11-12T13:29:19.173Z,38.84
2022-11-12T13:31:45.748Z,39.08
2022-11-12T13:34:33.521Z,39.07
2022-11-12T13:37:04.945Z,39.05
2022-11-12T13:39:38.275Z,39.53
2022-11-12T13:42:32.403Z,40.10
2022-11-12T13:45:00.526Z,40.37
2022-11-12T13:47:29.282Z,40.25
2022-11-12T13:50:01.170Z,40.14
2022-11-12T13:52:29.001Z,40.82
2022-11-12T13:55:17.844Z,40.72
2022-11-12T13:57:54.844Z,40.14
2022-11-12T14:00:29.125Z,39.94
2022-11-12T14:03:00.169Z,39.36
2022-11-12T14:05:29.493Z,39.16
2022-11-12T14:08:11.936Z,38.42
2022-11-12T14:11:04.253Z,38.41
2022-11-12T14:14:15.154Z,38.32
2022-11-12T14:17:01.673Z,38.23
2022-11-12T14:19:49.821Z,38.47
2022-11-12T14:22:18.825Z,38.22
2022-11-12T14:24:48.173Z,38.66
2022-11-12T14:27:33.936Z,38.84
2022-11-12T14:30:26.902Z,39.12
2022-11-12T14:32:59.146Z,38.77
2022-11-12T14:35:28.621Z,38.73
2022-11-12T14:38:05.036Z,38.15
2022-11-12T14:40:44.377Z,38.10
2022-11-12T14:43:29.459Z,38.17
2022-11-12T14:45:57.914Z,38.13
2022-11-12T14:48:24.994Z,38.34
2022-11-12T14:51:01.815Z,38.60
2022-11-12T14:53:41.352Z,39.16
2022-11-12T14:56:12.645Z,39.14
2022-11-12T14:58:39.902Z,39.41
2022-11-12T15:02:20.851Z,39.83
2022-11-12T15:04:24.831Z,39.85
2022-11-12T15:06:55.811Z,40.33
2022-11-12T15:09:38.571Z,40.70
2022-11-12T15:12:14.248Z,40.64
2022-11-12T15:14:40.867Z,40.54
2022-11-12T15:17:21.960Z,40.98
2022-11-12T15:19:48.617Z,40.91
2022-11-12T15:22:22.465Z,41.18
2022-11-12T15:24:49.577Z,41.07
2022-11-12T15:27:38.262Z,41.85
2022-11-12T15:30:19.387Z,41.82
2022-11-12T15:32:46.468Z,41.45
2022-11-12T15:35:44.013Z,42.40
2022-11-12T15:38:22.205Z,42.17
2022-11-12T15:40:57.271Z,42.54
2022-11-12T15:43:36.384Z,42.78
2022-11-12T15:46:03.235Z,42.77
2022-11-12T15:48:29.809Z,42.75
2022-11-12T15:50:56.266Z,43.06
2022-11-12T15:53:22.715Z,43.41
2022-11-12T15:55:50.007Z,43.16
2022-11-12T15:58:32.123Z,43.91
2022-11-12T16:00:58.763Z,43.49
2022-11-12T16:03:25.923Z,43.45
2022-11-12T16:05:52.535Z,44.04
2022-11-12T16:08:18.854Z,43.87
2022-11-12T16:10:46.510Z,44.35
2022-11-12T16:13:16.586Z,44.75
2022-11-12T16:15:43.038Z,44.77
2022-11-12T16:18:12.576Z,45.44
2022-11-12T16:20:39.034Z,45.09
2022-11-12T16:23:05.395Z,45.33
2022-11-12T16:25:34.291Z,45.61
2022-11-12T16:28:01.558Z,45.89
2022-11-12T16:30:31.917Z,46.20
2022-11-12T16:32:59.662Z,46.15
2022-11-12T16:35:27.752Z,46.41
2022-11-12T16:37:55.410Z,46.50
2022-11-12T16:40:24.564Z,46.73
2022-11-12T16:42:50.994Z,46.80
2022-11-12T16:45:19.985Z,46.88
2022-11-12T16:47:49.217Z,46.99
2022-11-12T16:50:21.764Z,47.80
2022-11-12T16:52:49.026Z,47.17
2022-11-12T16:55:15.574Z,47.36
2022-11-12T16:57:42.959Z,47.56
2022-11-12T17:00:15.048Z,48.14
2022-11-12T17:02:46.135Z,47.78
2022-11-12T17:05:20.461Z,48.19
2022-11-12T17:07:47.734Z,47.45
2022-11-12T17:10:14.443Z,47.62
2022-11-12T17:12:40.791Z,47.86
2022-11-12T17:15:07.759Z,47.92
2022-11-12T17:17:34.157Z,47.92
2022-11-12T17:20:00.534Z,48.04
2022-11-12T17:22:27.160Z,48.21
2022-11-12T17:24:53.485Z,48.28
2022-11-12T17:27:19.804Z,48.21
2022-11-12T17:29:46.154Z,48.47
2022-11-12T17:32:12.505Z,48.56
2022-11-12T17:34:38.852Z,48.65
2022-11-12T17:37:05.194Z,48.32
2022-11-12T17:39:31.620Z,48.83
2022-11-12T17:41:58.017Z,48.63
2022-11-12T17:44:24.392Z,48.71
2022-11-12T17:46:50.727Z,48.39
2022-11-12T17:49:17.143Z,48.52
2022-11-12T17:51:43.517Z,48.51
2022-11-12T17:54:10.078Z,48.60
2022-11-12T17:56:37.234Z,48.45
2022-11-12T17:59:04.227Z,48.30
2022-11-12T18:01:32.476Z,48.85
2022-11-12T18:03:59.414Z,48.47
2022-11-12T18:06:29.058Z,48.57
2022-11-12T18:09:14.309Z,48.66
2022-11-12T18:11:58.800Z,48.67
2022-11-12T18:14:25.968Z,48.24
2022-11-12T18:16:52.348Z,48.36
2022-11-12T18:19:18.745Z,48.33
2022-11-12T18:21:45.132Z,48.20
2022-11-12T18:24:15.905Z,48.56
2022-11-12T18:26:44.028Z,48.27
2022-11-12T18:29:11.252Z,48.31
2022-11-12T18:31:37.791Z,48.45
2022-11-12T18:34:04.196Z,48.14
2022-11-12T18:36:30.540Z,48.26
2022-11-12T18:38:56.896Z,48.34
2022-11-12T18:41:26.729Z,48.17
2022-11-12T18:43:54.176Z,48.19
2022-11-12T18:46:20.843Z,48.06
2022-11-12T18:48:47.542Z,48.06
2022-11-12T18:51:16.445Z,47.84
2022-11-12T18:53:43.499Z,47.69
2022-11-12T18:56:18.715Z,47.62
2022-11-12T18:58:45.542Z,47.46
2022-11-12T19:01:15.727Z,47.33
2022-11-12T19:03:42.793Z,47.24
2022-11-12T19:06:12.254Z,47.14
2022-11-12T19:08:38.570Z,47.25
2022-11-12T19:11:07.973Z,47.10
2022-11-12T19:13:34.808Z,47.12
2022-11-12T19:16:11.662Z,47.18
2022-11-12T19:18:39.537Z,47.13
2022-11-12T19:21:11.052Z,47.02
2022-11-12T19:23:38.455Z,47.00
2022-11-12T19:26:07.051Z,46.87
2022-11-12T19:28:35.125Z,46.54
2022-11-12T19:31:12.618Z,46.50
2022-11-12T19:33:39.146Z,46.60
2022-11-12T19:36:07.143Z,46.45
2022-11-12T19:38:33.801Z,46.38
2022-11-12T19:41:08.658Z,46.19
2022-11-12T19:43:35.394Z,46.09
2022-11-12T19:46:02.510Z,46.01
2022-11-12T19:48:29.384Z,45.97
2022-11-12T19:51:01.039Z,45.59
2022-11-12T19:53:35.420Z,45.62
2022-11-12T19:56:03.487Z,45.81
2022-11-12T19:58:31.736Z,45.79
2022-11-12T20:01:10.134Z,45.74
2022-11-12T20:03:37.678Z,45.78
2022-11-12T20:06:07.112Z,45.64
2022-11-12T20:08:33.767Z,45.44
2022-11-12T20:11:00.965Z,45.36
2022-11-12T20:13:28.207Z,45.55
2022-11-12T20:15:54.879Z,45.22
2022-11-12T20:18:21.584Z,45.29
2022-11-12T20:20:57.524Z,45.19
2022-11-12T20:23:25.242Z,45.08
2022-11-12T20:25:52.901Z,45.08
2022-11-12T20:28:19.376Z,44.88
2022-11-12T20:30:45.724Z,44.59
2022-11-12T20:33:15.329Z,44.67
2022-11-12T20:35:41.975Z,44.81
2022-11-12T20:38:08.294Z,44.93
2022-11-12T20:40:34.653Z,44.64
2022-11-12T20:43:01.005Z,44.59
2022-11-12T20:45:27.336Z,44.54
2022-11-12T20:47:56.039Z,44.39
2022-11-12T20:50:22.710Z,44.61
2022-11-12T20:52:49.084Z,44.38
2022-11-12T20:55:15.559Z,44.40
2022-11-12T20:57:41.867Z,44.23
2022-11-12T21:00:13.569Z,43.94
2022-11-12T21:02:40.592Z,44.09
2022-11-12T21:05:07.277Z,43.89
2022-11-12T21:07:33.696Z,44.10
2022-11-12T21:10:00.090Z,43.91
2022-11-12T21:12:26.456Z,43.82
2022-11-12T21:14:52.829Z,43.75
2022-11-12T21:17:19.723Z,43.76
2022-11-12T21:19:46.176Z,43.79
2022-11-12T21:22:14.705Z,43.86
2022-11-12T21:24:41.069Z,43.64
2022-11-12T21:27:07.477Z,44.02
2022-11-12T21:29:34.606Z,43.86
2022-11-12T21:32:00.894Z,43.83
2022-11-12T21:34:27.250Z,43.87
2022-11-12T21:36:53.657Z,43.91
2022-11-12T21:39:20.061Z,43.68
2022-11-12T21:41:46.361Z,43.83
2022-11-12T21:44:12.673Z,43.85
2022-11-12T21:46:40.320Z,43.72
2022-11-12T21:49:06.778Z,43.72
2022-11-12T21:51:33.677Z,43.99
2022-11-12T21:54:05.645Z,43.92
2022-11-12T21:56:34.101Z,43.97
2022-11-12T21:59:01.243Z,44.04
2022-11-12T22:01:50.434Z,44.05
2022-11-12T22:04:18.422Z,44.22
2022-11-12T22:06:45.074Z,44.36
2022-11-12T22:09:11.610Z,44.26
2022-11-12T22:11:38.142Z,44.04
2022-11-12T22:14:04.623Z,44.28
2022-11-12T22:16:31.094Z,44.29
2022-11-12T22:18:59.508Z,44.29
2022-11-12T22:21:36.817Z,44.31
2022-11-12T22:24:05.575Z,44.50
2022-11-12T22:26:31.935Z,44.51
2022-11-12T22:28:59.175Z,44.19
2022-11-12T22:31:31.692Z,44.16
2022-11-12T22:34:00.035Z,44.35
2022-11-12T22:36:29.249Z,44.29
2022-11-12T22:38:56.101Z,44.18
2022-11-12T22:41:22.532Z,43.98
2022-11-12T22:43:50.933Z,44.19
2022-11-12T22:46:22.793Z,44.07
2022-11-12T22:48:49.772Z,44.23
2022-11-12T22:51:18.495Z,44.10
2022-11-12T22:53:45.297Z,44.08
2022-11-12T22:56:14.989Z,44.33
2022-11-12T22:58:43.566Z,44.17
2022-11-12T23:01:21.496Z,44.34
2022-11-12T23:03:49.625Z,44.46
2022-11-12T23:06:16.744Z,44.47
2022-11-12T23:08:43.290Z,44.14
2022-11-12T23:11:12.767Z,44.12
2022-11-12T23:13:39.550Z,44.06
2022-11-12T23:16:13.239Z,44.01
2022-11-12T23:18:39.711Z,43.97
2022-11-12T23:21:09.506Z,43.98
2022-11-12T23:23:36.678Z,43.69
2022-11-12T23:26:09.572Z,43.68
2022-11-12T23:28:36.314Z,43.84
2022-11-12T23:31:11.250Z,43.27
2022-11-12T23:33:38.046Z,43.38
2022-11-12T23:36:09.167Z,43.02
2022-11-12T23:38:35.615Z,43.27
2022-11-12T23:41:03.280Z,43.21
2022-11-12T23:43:30.203Z,43.06
2022-11-12T23:45:56.996Z,42.99
2022-11-12T23:48:23.504Z,42.98
2022-11-12T23:50:51.644Z,43.01
2022-11-12T23:53:18.320Z,42.91
2022-11-12T23:55:44.882Z,42.79
2022-11-12T23:58:11.281Z,42.65
